Time;durP1;ratioP1;P1;durP2;ratioP2;P2;SDS_P1;SDS_P2;PMS_P1;PMS_P2;Temp;Humidity;BMP_temperature;BMP_pressure;BME280_temperature;BME280_humidity;BME280_pressure;Samples;Min_cycle;Max_cycle;Signal;HPM_P1;HPM_P2
2021/05/18 00:04:36;;;;;;;;;;;9.80;99.90;;;8.82;82.41;95332.47;10298519;28;1924;-85
2021/05/18 00:15:02;;;;;;;;;;;9.90;99.90;;;8.86;81.79;95344.28;10295952;28;2036;-84
2021/05/18 00:20:09;;;;;;;;;;;10.60;99.90;;;8.86;81.50;95338.91;10277232;28;2001;-85
2021/05/18 00:25:12;;;;;;;;;;;9.90;99.90;;;8.85;81.60;95348.81;10276829;28;1751;-85
2021/05/18 00:30:15;;;;;;;;;;;9.80;99.90;;;8.89;81.71;95359.78;10282278;28;2223;-85
2021/05/18 00:35:17;;;;;;;;;;;9.90;99.90;;;8.87;81.35;95356.59;10304916;28;2054;-83
2021/05/18 00:40:20;;;;;;;;;;;10.60;99.90;;;8.86;81.74;95369.19;10281198;28;1931;-85
2021/05/18 00:45:25;;;;;;;;;;;9.80;99.90;;;8.84;81.01;95370.53;10290004;28;2069;-86
2021/05/18 00:50:27;;;;;;;;;;;10.20;99.90;;;8.77;81.83;95364.66;10285663;28;2070;-83
2021/05/18 00:55:37;;;;;;;;;;;9.90;99.90;;;8.70;82.63;95358.78;10319806;28;1823;-84
2021/05/18 01:00:41;;;;;;;;;;;9.80;99.90;;;8.60;81.88;95368.44;10294327;28;1951;-84
2021/05/18 01:11:04;;;;;;;;;;;10.40;99.90;;;8.61;81.73;95369.25;10295163;28;2058;-85
2021/05/18 01:16:07;;;;;;;;;;;9.60;99.90;;;8.64;81.60;95368.69;10283323;28;2096;-85
2021/05/18 01:21:09;;;;;;;;;;;10.60;99.90;;;8.65;80.48;95372.97;10314134;28;2043;-86
2021/05/18 01:26:12;;;;;;;;;;;9.60;99.90;;;8.72;80.34;95386.13;10288473;28;2135;-85
2021/05/18 01:31:17;;;;;;;;;;;9.70;99.90;;;8.66;80.47;95382.63;10300341;28;2178;-85
2021/05/18 01:36:21;;;;;;;;;;;9.70;99.90;;;8.64;81.44;95388.25;10297318;28;2004;-86
2021/05/18 01:46:44;;;;;;;;;;;10.40;99.90;;;8.62;80.45;95400.31;10287590;28;2153;-85
2021/05/18 01:51:47;;;;;;;;;;;9.60;99.90;;;8.66;79.96;95394.16;10324762;28;2099;-86
2021/05/18 01:56:52;;;;;;;;;;;10.50;99.90;;;8.68;79.41;95404.59;10306283;28;2154;-85
2021/05/18 02:01:55;;;;;;;;;;;9.60;99.90;;;8.65;80.69;95411.31;10329129;28;2213;-86
2021/05/18 02:06:58;;;;;;;;;;;10.50;99.90;;;8.66;80.48;95404.88;10346179;28;2135;-88
2021/05/18 02:12:01;;;;;;;;;;;9.70;99.90;;;8.65;80.06;95414.00;10335525;28;1887;-85
2021/05/18 02:17:07;;;;;;;;;;;9.60;99.90;;;8.60;80.45;95410.50;10331141;28;1977;-85
2021/05/18 02:24:34;;;;;;;;;;;10.00;99.90;;;8.64;80.84;95404.31;10317417;28;1726;-87
2021/05/18 02:27:40;;;;;;;;;;;9.70;99.90;;;8.64;80.08;95411.56;10317105;28;2031;-88
2021/05/18 02:32:43;;;;;;;;;;;10.20;99.90;;;8.65;80.31;95414.00;10323515;28;2143;-86
2021/05/18 02:37:45;;;;;;;;;;;9.70;99.90;;;8.68;80.37;95411.84;10290029;28;2095;-83
2021/05/18 02:42:48;;;;;;;;;;;9.70;99.90;;;8.68;80.50;95412.63;10301870;28;1722;-86
2021/05/18 02:53:12;;;;;;;;;;;9.70;99.90;;;8.71;80.38;95403.25;10288989;28;1610;-84
2021/05/18 02:58:14;;;;;;;;;;;10.20;99.90;;;8.71;80.84;95405.94;10298486;28;2052;-85
2021/05/18 03:03:18;;;;;;;;;;;9.70;99.90;;;8.70;80.33;95407.00;10305045;28;2217;-85
2021/05/18 03:08:21;;;;;;;;;;;9.70;99.90;;;8.71;79.96;95409.41;10311451;28;2144;-86
2021/05/18 03:13:23;;;;;;;;;;;9.70;99.90;;;8.78;80.70;95422.53;10300686;28;2188;-84
2021/05/18 03:18:26;;;;;;;;;;;10.60;99.90;;;8.77;80.86;95431.66;10298569;28;1622;-86
2021/05/18 03:23:32;;;;;;;;;;;9.80;99.90;;;8.72;80.46;95418.28;10306307;28;2166;-85
2021/05/18 03:28:34;;;;;;;;;;;10.10;99.90;;;8.74;80.75;95424.16;10291620;28;2029;-85
2021/05/18 03:38:58;;;;;;;;;;;9.70;99.90;;;8.60;83.90;95432.75;10289663;28;2105;-85
2021/05/18 03:44:07;;;;;;;;;;;9.70;99.90;;;8.43;84.45;95432.22;10302981;28;2127;-85
2021/05/18 03:54:40;;;;;;;;;;;9.50;99.90;;;8.29;86.32;95429.22;10303099;28;1990;-86
2021/05/18 04:05:11;;;;;;;;;;;9.40;99.90;;;8.34;87.39;95425.75;10301489;28;2121;-84
2021/05/18 04:10:34;;;;;;;;;;;9.40;99.90;;;8.36;86.24;95432.47;10307724;28;2057;-84
2021/05/18 04:21:09;;;;;;;;;;;9.40;99.90;;;8.56;85.38;95439.72;10289638;28;2494;-85
2021/05/18 04:26:39;;;;;;;;;;;9.90;99.90;;;8.64;83.97;95443.72;10298520;28;2147;-85
2021/05/18 04:43:14;;;;;;;;;;;10.00;99.90;;;8.88;81.28;95460.84;10285178;28;2221;-85
2021/05/18 04:48:34;;;;;;;;;;;9.80;99.90;;;9.06;79.70;95462.16;10304932;28;2169;-85
2021/05/18 04:53:50;;;;;;;;;;;10.00;99.90;;;9.22;79.59;95470.97;10295439;28;2132;-84
2021/05/18 04:59:03;;;;;;;;;;;10.10;99.90;;;9.46;77.08;95473.84;10309093;28;2244;-86
2021/05/18 05:04:14;;;;;;;;;;;10.30;99.90;;;9.86;75.18;95469.38;10288023;28;2010;-84
2021/05/18 05:09:22;;;;;;;;;;;10.60;99.90;;;10.02;73.63;95474.41;10287188;28;2082;-85
2021/05/18 05:14:25;;;;;;;;;;;10.90;99.90;;;10.03;72.79;95485.97;10288105;28;1825;-86
2021/05/18 05:19:29;;;;;;;;;;;11.00;99.90;;;9.77;73.46;95487.97;10289664;28;2060;-85
2021/05/18 05:24:32;;;;;;;;;;;10.90;99.90;;;9.64;74.16;95497.41;10289648;28;2136;-86
2021/05/18 05:29:34;;;;;;;;;;;10.70;99.90;;;9.42;77.72;95508.50;10313171;28;1910;-84
2021/05/18 05:34:37;;;;;;;;;;;10.50;99.90;;;9.14;77.93;95512.56;10322704;28;2187;-87
2021/05/18 05:39:40;;;;;;;;;;;10.30;99.90;;;9.18;77.01;95513.63;10310423;28;1924;-84
2021/05/18 05:44:42;;;;;;;;;;;10.20;99.90;;;9.20;76.89;95521.41;10321972;28;2085;-84
2021/05/18 05:49:45;;;;;;;;;;;10.20;99.90;;;9.31;76.60;95522.19;10296012;28;1891;-85
2021/05/18 05:54:47;;;;;;;;;;;10.20;99.90;;;9.39;75.86;95519.75;10308206;28;2106;-84
2021/05/18 05:59:49;;;;;;;;;;;10.30;99.90;;;9.35;76.70;95523.25;10283492;28;1954;-86
2021/05/18 06:04:52;;;;;;;;;;;10.30;99.90;;;9.47;76.18;95531.78;10301184;28;1723;-85
2021/05/18 06:09:59;;;;;;;;;;;10.40;99.90;;;9.52;75.61;95533.66;10307509;28;1936;-81
2021/05/18 06:42:10;;;;;;;;;;;11.40;99.90;;;11.20;69.66;95565.84;10279799;28;1996;-83
2021/05/18 06:47:29;;;;;;;;;;;11.80;99.90;;;11.16;68.56;95562.09;10271840;28;2147;-87
2021/05/18 06:52:32;;;;;;;;;;;12.10;99.90;;;10.89;72.08;95575.22;10271952;28;2316;-82
2021/05/18 06:57:36;;;;;;;;;;;11.90;99.90;;;11.18;71.88;95570.69;10278275;28;2102;-83
2021/05/18 07:02:42;;;;;;;;;;;11.90;99.90;;;11.31;71.85;95575.41;10296213;28;2202;-81
2021/05/18 07:07:46;;;;;;;;;;;12.20;99.90;;;11.54;68.91;95568.47;10283150;28;2053;-82
2021/05/18 07:12:58;;;;;;;;;;;12.40;99.90;;;12.39;65.89;95557.00;10288741;28;2193;-83
2021/05/18 07:18:01;;;;;;;;;;;12.90;99.90;;;13.15;61.59;95565.88;10278216;28;2020;-83
2021/05/18 07:23:07;;;;;;;;;;;13.80;99.90;;;13.29;61.12;95560.53;10279169;28;1983;-84
2021/05/18 07:28:11;;;;;;;;;;;14.10;99.90;;;12.70;62.94;95562.78;10306442;28;2007;-84
2021/05/18 07:33:13;;;;;;;;;;;13.90;99.90;;;13.03;62.66;95570.13;10312210;28;2113;-82
2021/05/18 07:38:16;;;;;;;;;;;13.80;99.90;;;13.27;60.22;95568.16;10287891;28;2084;-83
2021/05/18 07:43:18;;;;;;;;;;;14.10;99.90;;;12.69;62.42;95555.00;10288014;28;2070;-81
2021/05/18 07:48:25;;;;;;;;;;;13.70;99.90;;;13.59;59.05;95566.53;10309665;28;2411;-85
2021/05/18 08:09:38;;;;;;;;;;;15.00;99.90;;;14.83;54.46;95556.47;10289656;28;1931;-84
2021/05/18 08:14:45;;;;;;;;;;;15.70;99.90;;;13.88;57.57;95548.16;10288641;28;2136;-85
2021/05/18 10:35:23;;;;;;;;;;;12.80;99.90;;;12.15;78.72;95583.19;10312311;28;2105;-84
2021/05/18 10:40:26;;;;;;;;;;;13.00;99.90;;;12.46;76.41;95570.13;10274307;28;1995;-83
2021/05/18 10:45:29;;;;;;;;;;;13.50;99.90;;;12.35;76.29;95571.38;10276472;28;2108;-85
2021/05/18 10:50:32;;;;;;;;;;;13.40;99.90;;;11.39;78.14;95574.00;10300661;28;2056;-84
2021/05/18 10:55:34;;;;;;;;;;;12.80;99.90;;;11.87;76.72;95568.69;10285629;28;2101;-84
2021/05/18 11:00:38;;;;;;;;;;;12.60;99.90;;;13.07;69.41;95554.97;10299447;28;2097;-86
2021/05/18 11:05:41;;;;;;;;;;;13.80;99.90;;;13.88;71.07;95564.38;10287817;28;2088;-88
2021/05/18 11:10:46;;;;;;;;;;;14.80;99.90;;;13.37;69.65;95559.88;10283417;28;2191;-84
2021/05/18 11:15:49;;;;;;;;;;;15.40;99.90;;;13.01;70.44;95556.13;10300738;28;1925;-83
2021/05/18 11:20:59;;;;;;;;;;;13.90;99.90;;;12.05;73.93;95577.94;10300040;28;2183;-80
2021/05/18 11:26:03;;;;;;;;;;;13.60;99.90;;;11.58;72.04;95592.94;10315502;28;2061;-85
2021/05/18 11:31:06;;;;;;;;;;;12.50;99.90;;;11.84;71.98;95594.31;10296519;28;2098;-84
2021/05/18 11:36:09;;;;;;;;;;;12.60;99.90;;;12.45;68.73;95574.72;10293173;28;2290;-84
2021/05/18 11:41:11;;;;;;;;;;;13.00;99.90;;;12.30;66.58;95558.75;10292830;28;2183;-82
2021/05/18 11:46:14;;;;;;;;;;;13.10;99.90;;;12.86;64.42;95549.88;10286245;28;2078;-83
2021/05/18 11:51:16;;;;;;;;;;;13.30;99.90;;;13.29;64.07;95549.75;10289680;28;2037;-82
2021/05/18 11:56:19;;;;;;;;;;;13.50;99.90;;;13.28;61.80;95540.06;10294168;28;2135;-81
2021/05/18 12:01:21;;;;;;;;;;;13.90;99.90;;;13.76;62.53;95531.66;10284053;28;2086;-82
2021/05/18 12:06:24;;;;;;;;;;;14.00;99.90;;;14.63;57.63;95546.09;10307375;28;1868;-83
2021/05/18 12:11:35;;;;;;;;;;;14.40;99.90;;;14.94;57.03;95536.19;10280634;28;2277;-83
2021/05/18 12:16:39;;;;;;;;;;;;;;;14.70;59.40;95543.81;10297812;28;2115;-83
2021/05/18 12:21:48;;;;;;;;;;;;;;;14.44;58.81;95547.03;10287950;28;2064;-82
2021/05/18 12:27:05;;;;;;;;;;;;;;;13.66;61.09;95537.22;10313694;28;2018;-82
2021/05/18 12:32:08;;;;;;;;;;;;;;;13.41;62.68;95533.88;10277973;28;1922;-81
2021/05/18 12:37:14;;;;;;;;;;;;;;;13.37;58.77;95530.19;10294397;28;2069;-84
2021/05/18 12:42:17;;;;;;;;;;;;;;;13.97;56.13;95532.03;10296634;28;2069;-85
2021/05/18 12:47:20;;;;;;;;;;;;;;;13.89;55.79;95530.84;10295983;28;2253;-81
2021/05/18 12:52:24;;;;;;;;;;;;;;;13.96;56.44;95525.84;10297241;28;2014;-84
2021/05/18 12:57:27;;;;;;;;;;;;;;;14.38;55.67;95515.78;10309216;28;2099;-83
2021/05/18 13:02:30;;;;;;;;;;;;;;;15.05;53.82;95518.59;10302193;28;2037;-83
2021/05/18 13:07:33;;;;;;;;;;;;;;;14.89;55.07;95514.66;10291725;28;2109;-81
2021/05/18 13:12:36;;;;;;;;;;;;;;;15.25;54.83;95497.53;10301709;28;2134;-82
2021/05/18 13:17:39;;;;;;;;;;;15.80;99.90;;;15.30;54.36;95483.88;10286445;28;2055;-81
2021/05/18 13:22:43;;;;;;;;;;;16.00;99.90;;;16.07;51.86;95475.28;10295059;28;2222;-81
2021/05/18 13:27:45;;;;;;;;;;;16.30;99.90;;;16.25;48.90;95456.34;10298568;28;2351;-81
2021/05/18 13:32:51;;;;;;;;;;;16.60;99.90;;;15.37;51.01;95468.78;10290180;28;1969;-82
2021/05/18 13:37:57;;;;;;;;;;;16.30;99.90;;;15.52;49.30;95464.84;10294287;28;1971;-85
2021/05/18 13:42:59;;;;;;;;;;;16.20;99.90;;;15.61;49.22;95454.06;10292073;28;2036;-83
2021/05/18 13:48:01;;;;;;;;;;;16.30;99.90;;;16.10;47.85;95450.25;10295369;28;1989;-82
2021/05/18 13:53:05;;;;;;;;;;;16.40;99.90;;;15.79;49.32;95444.91;10306600;28;2092;-81
2021/05/18 13:58:07;;;;;;;;;;;16.50;99.90;;;15.89;48.44;95447.31;10318476;28;1766;-80
2021/05/18 14:03:10;;;;;;;;;;;16.80;99.90;;;15.31;50.98;95453.75;10325684;28;2080;-85
2021/05/18 14:13:33;;;;;;;;;;;16.20;99.90;;;16.18;50.22;95432.41;10300501;28;2228;-84
2021/05/18 14:18:35;;;;;;;;;;;16.60;99.90;;;16.38;47.13;95430.97;10305431;28;1872;-84
2021/05/18 14:23:42;;;;;;;;;;;17.00;99.90;;;15.26;49.55;95443.06;10289128;28;2037;-85
2021/05/18 14:28:45;;;;;;;;;;;16.50;99.90;;;13.93;54.18;95429.19;10301203;28;2031;-86
2021/05/18 14:33:48;;;;;;;;;;;15.50;99.90;;;14.06;54.47;95435.66;10300064;28;1963;-85
2021/05/18 14:38:52;;;;;;;;;;;14.90;99.90;;;13.93;54.84;95445.38;10331774;28;1884;-85
2021/05/18 14:44:05;;;;;;;;;;;15.00;99.90;;;12.25;60.65;95464.50;10330221;28;1928;-84
2021/05/18 14:54:44;;;;;;;;;;;12.80;99.90;;;10.76;62.27;95483.38;10306849;28;1960;-83
2021/05/18 14:59:50;;;;;;;;;;;12.10;99.90;;;11.13;60.42;95490.00;10303463;28;2085;-83
2021/05/18 15:04:58;;;;;;;;;;;11.90;99.90;;;11.56;59.17;95479.34;10295517;28;2221;-84
2021/05/18 15:10:03;;;;;;;;;;;12.20;99.90;;;12.34;57.80;95473.53;10288930;28;2269;-82
2021/05/18 15:15:05;;;;;;;;;;;13.30;99.90;;;12.48;56.48;95473.59;10293340;28;2281;-83
2021/05/18 15:20:08;;;;;;;;;;;13.20;99.90;;;12.73;56.53;95463.53;10286190;28;2311;-81
2021/05/18 15:25:12;;;;;;;;;;;14.30;99.90;;;13.22;54.95;95460.25;10296216;28;2047;-81
2021/05/18 15:30:15;;;;;;;;;;;14.30;99.90;;;12.49;57.22;95463.63;10292623;28;1989;-84
2021/05/18 15:35:17;;;;;;;;;;;14.00;99.90;;;12.27;58.19;95451.53;10312284;28;2300;-84
2021/05/18 15:40:20;;;;;;;;;;;12.80;99.90;;;13.24;55.00;95444.59;10314002;28;2370;-83
2021/05/18 15:45:23;;;;;;;;;;;13.90;99.90;;;13.33;55.49;95445.50;10307670;28;2058;-82
2021/05/18 15:50:26;;;;;;;;;;;14.20;99.90;;;13.30;54.47;95448.00;10294674;28;2082;-82
2021/05/18 15:55:28;;;;;;;;;;;14.30;99.90;;;12.99;54.92;95441.22;10318172;28;2039;-81
2021/05/18 16:00:31;;;;;;;;;;;14.20;99.90;;;13.41;52.42;95439.38;10305203;28;2403;-82
2021/05/18 16:05:33;;;;;;;;;;;14.20;99.90;;;13.84;51.77;95430.97;10298873;28;2379;-83
2021/05/18 16:10:36;;;;;;;;;;;14.40;99.90;;;13.73;51.55;95426.88;10304051;28;2394;-85
2021/05/18 16:15:42;;;;;;;;;;;14.70;99.90;;;14.09;50.85;95421.53;10295037;28;1398;-83
2021/05/18 16:20:49;;;;;;;;;;;14.80;99.90;;;13.84;52.21;95409.38;10300372;28;1622;-82
2021/05/18 16:25:54;;;;;;;;;;;14.90;99.90;;;13.62;52.45;95410.09;10315020;28;1864;-83
2021/05/18 16:30:58;;;;;;;;;;;14.70;99.90;;;13.13;53.64;95414.25;10293714;28;2050;-83
2021/05/18 16:36:01;;;;;;;;;;;14.40;99.90;;;12.87;55.91;95415.81;10295787;28;1947;-83
2021/05/18 16:41:07;;;;;;;;;;;14.10;99.90;;;12.62;55.75;95411.63;10305465;28;1828;-84
2021/05/18 16:46:10;;;;;;;;;;;13.90;99.90;;;12.70;55.90;95411.75;10307116;28;2022;-85
2021/05/18 16:51:13;;;;;;;;;;;13.80;99.90;;;13.17;54.97;95409.06;10291230;28;2156;-84
2021/05/18 16:56:16;;;;;;;;;;;13.90;99.90;;;13.30;54.62;95416.41;10293636;28;1744;-85
2021/05/18 17:01:19;;;;;;;;;;;14.10;99.90;;;13.45;55.23;95415.31;10301263;28;2049;-84
2021/05/18 17:06:46;;;;;;;;;;;14.20;99.90;;;13.62;53.82;95409.31;10297210;28;2038;-83
2021/05/18 17:11:52;;;;;;;;;;;14.30;99.90;;;13.90;52.79;95413.56;10302054;28;2013;-85
2021/05/18 17:16:58;;;;;;;;;;;14.60;99.90;;;13.51;53.94;95408.69;10296362;28;1947;-83
2021/05/18 17:22:01;;;;;;;;;;;14.50;99.90;;;13.11;55.23;95411.06;10289218;28;1832;-86
2021/05/18 17:27:08;;;;;;;;;;;14.30;99.90;;;13.05;55.96;95406.06;10310208;28;2026;-85
2021/05/18 17:32:18;;;;;;;;;;;14.20;99.90;;;12.80;57.25;95416.19;10299300;28;1887;-85
2021/05/18 17:37:39;;;;;;;;;;;14.00;99.90;;;12.70;60.94;95419.84;10306413;28;2002;-82
2021/05/18 17:42:56;;;;;;;;;;;13.80;99.90;;;12.22;66.96;95427.38;10305336;28;1845;-84
2021/05/18 17:48:13;;;;;;;;;;;13.60;99.90;;;12.00;66.64;95427.13;10289983;28;2059;-83
2021/05/18 17:53:22;;;;;;;;;;;13.20;99.90;;;11.96;69.90;95418.84;10298530;28;2133;-85
2021/05/18 17:58:26;;;;;;;;;;;13.10;99.90;;;11.92;68.14;95423.19;10309228;28;2085;-85
2021/05/18 18:03:29;;;;;;;;;;;13.00;99.90;;;11.83;66.38;95420.38;10304836;28;2126;-86
2021/05/18 18:08:37;;;;;;;;;;;12.90;99.90;;;11.45;68.07;95435.63;10287671;28;2001;-84
2021/05/18 18:13:40;;;;;;;;;;;12.70;99.90;;;11.02;68.39;95443.59;10311517;28;2085;-84
2021/05/18 18:18:43;;;;;;;;;;;12.00;99.90;;;10.76;67.23;95451.09;10301650;28;2101;-84
2021/05/18 18:23:45;;;;;;;;;;;12.20;99.90;;;10.51;68.54;95464.75;10287819;28;2152;-84
2021/05/18 18:28:50;;;;;;;;;;;11.90;99.90;;;10.33;68.44;95468.91;10307524;28;2029;-86
2021/05/18 18:33:54;;;;;;;;;;;11.70;99.90;;;10.18;69.01;95472.47;10297988;28;2196;-84
2021/05/18 18:38:57;;;;;;;;;;;11.60;99.90;;;10.10;68.58;95467.66;10312170;28;2042;-87
2021/05/18 18:43:59;;;;;;;;;;;11.40;99.90;;;9.98;70.07;95469.88;10310077;28;2116;-84
2021/05/18 18:49:02;;;;;;;;;;;11.30;99.90;;;9.87;70.38;95466.44;10312048;28;2209;-82
2021/05/18 18:54:04;;;;;;;;;;;11.20;99.90;;;9.80;71.08;95463.28;10311383;28;2242;-84
2021/05/18 18:59:07;;;;;;;;;;;11.10;99.90;;;9.74;71.86;95462.50;10323433;28;2155;-84
2021/05/18 19:04:11;;;;;;;;;;;11.10;99.90;;;9.74;72.49;95465.16;10318904;28;2096;-83
2021/05/18 19:14:35;;;;;;;;;;;10.90;99.90;;;9.59;73.60;95457.16;10308669;28;2053;-86
2021/05/18 19:19:37;;;;;;;;;;;10.90;99.90;;;9.42;74.32;95467.44;10318067;28;2027;-85
2021/05/18 19:24:40;;;;;;;;;;;10.80;99.90;;;9.38;74.63;95479.78;10310916;28;2233;-85
2021/05/18 19:29:42;;;;;;;;;;;10.70;99.90;;;9.32;74.94;95483.56;10333919;28;1950;-85
2021/05/18 19:34:45;;;;;;;;;;;10.70;99.90;;;9.36;74.32;95493.47;10333179;28;2082;-83
2021/05/18 19:50:19;;;;;;;;;;;10.60;99.90;;;9.37;74.56;95505.81;10317645;28;1891;-86
2021/05/18 19:55:29;;;;;;;;;;;10.60;99.90;;;9.37;74.00;95508.50;10309511;28;1896;-86
2021/05/18 20:22:05;;;;;;;;;;;10.90;99.90;;;9.85;72.68;95516.91;10322149;28;2019;-84
2021/05/18 20:27:11;;;;;;;;;;;10.90;99.90;;;9.77;72.83;95514.00;10325756;28;1947;-84
2021/05/18 20:32:13;;;;;;;;;;;10.90;99.90;;;9.66;73.82;95513.22;10311816;28;2015;-87
2021/05/18 20:42:37;;;;;;;;;;;10.80;99.90;;;9.55;74.40;95512.47;10315298;28;2006;-87
2021/05/18 20:47:40;;;;;;;;;;;10.70;99.90;;;9.58;74.38;95517.28;10328712;28;2059;-84
2021/05/18 20:52:42;;;;;;;;;;;10.70;99.90;;;9.62;74.34;95518.34;10314904;28;1899;-85
2021/05/18 20:57:45;;;;;;;;;;;10.70;99.90;;;9.63;74.11;95514.59;10314417;28;2110;-86
2021/05/18 21:02:47;;;;;;;;;;;10.70;99.90;;;9.54;74.83;95516.22;10327764;28;2054;-87
2021/05/18 21:13:21;;;;;;;;;;;10.60;99.90;;;9.51;75.03;95513.28;10319162;28;2011;-88
2021/05/18 21:18:24;;;;;;;;;;;10.60;99.90;;;9.36;75.90;95517.63;10313139;28;1913;-86
2021/05/18 21:23:27;;;;;;;;;;;10.60;99.90;;;9.32;76.07;95521.13;10323686;28;1992;-86
2021/05/18 21:28:29;;;;;;;;;;;10.50;99.90;;;9.26;76.34;95522.19;10325316;28;1895;-85
2021/05/18 21:33:32;;;;;;;;;;;10.40;99.90;;;9.29;76.46;95527.00;10312699;28;2026;-85
2021/05/18 21:38:34;;;;;;;;;;;10.40;99.90;;;9.30;76.53;95525.97;10323781;28;2053;-85
2021/05/18 21:43:37;;;;;;;;;;;10.40;99.90;;;9.31;76.18;95527.56;10304985;28;2161;-86
2021/05/18 21:48:39;;;;;;;;;;;8.70;99.90;;;9.23;77.02;95530.78;10315567;28;2023;-84
2021/05/18 21:53:42;;;;;;;;;;;10.40;99.90;;;9.06;77.92;95531.06;10302983;28;2027;-85
2021/05/18 21:58:45;;;;;;;;;;;10.30;99.90;;;8.97;77.46;95533.50;10319197;28;1885;-85
2021/05/18 22:03:48;;;;;;;;;;;10.20;99.90;;;8.94;76.81;95536.72;10297007;28;2069;-86
2021/05/18 22:09:00;;;;;;;;;;;10.10;99.90;;;8.97;77.56;95532.66;10298838;28;1820;-87
2021/05/18 22:14:07;;;;;;;;;;;10.10;99.90;;;9.02;77.19;95536.16;10311124;28;1893;-86
2021/05/18 22:29:56;;;;;;;;;;;10.20;99.90;;;8.96;77.37;95553.31;10295562;28;2102;-84
2021/05/18 22:34:58;;;;;;;;;;;10.10;99.90;;;9.01;77.56;95556.00;10319881;28;2066;-86
2021/05/18 22:40:01;;;;;;;;;;;10.10;99.90;;;9.00;77.48;95559.75;10299842;28;2018;-85
2021/05/18 22:45:04;;;;;;;;;;;10.10;99.90;;;8.95;77.70;95562.44;10302693;28;1659;-86
2021/05/18 22:50:07;;;;;;;;;;;10.10;99.90;;;8.87;78.66;95566.47;10303551;28;2054;-86
2021/05/18 22:55:10;;;;;;;;;;;10.00;99.90;;;8.79;80.19;95566.19;10313750;28;2058;-85
2021/05/18 23:00:12;;;;;;;;;;;10.00;99.90;;;8.50;84.44;95566.69;10298439;28;2023;-83
2021/05/18 23:05:15;;;;;;;;;;;9.80;99.90;;;8.29;88.77;95563.13;10306335;28;2088;-83
2021/05/18 23:10:17;;;;;;;;;;;9.60;99.90;;;8.12;91.25;95554.50;10295859;28;1952;-85
2021/05/18 23:15:20;;;;;;;;;;;9.90;99.90;;;8.05;92.55;95559.31;10306616;28;1678;-85
2021/05/18 23:20:22;;;;;;;;;;;10.10;99.90;;;7.96;92.08;95566.25;10297099;28;1889;-85
2021/05/18 23:25:25;;;;;;;;;;;9.30;99.90;;;7.82;91.86;95566.72;10299597;28;2054;-85
2021/05/18 23:30:28;;;;;;;;;;;9.10;99.90;;;7.75;92.01;95568.00;10311579;28;1903;-86
2021/05/18 23:35:31;;;;;;;;;;;10.50;99.90;;;7.63;92.31;95560.19;10295237;28;2185;-86
2021/05/18 23:40:33;;;;;;;;;;;9.00;99.90;;;7.58;91.33;95550.28;10318742;28;2031;-85
2021/05/18 23:45:36;;;;;;;;;;;8.80;99.90;;;7.46;92.14;95557.69;10290009;28;1736;-85
2021/05/18 23:50:39;;;;;;;;;;;10.50;99.90;;;7.41;92.58;95556.88;10309846;28;1990;-85
2021/05/18 23:55:41;;;;;;;;;;;8.70;99.90;;;7.41;92.27;95546.16;10307159;28;2024;-85
